Time;durP1;ratioP1;P1;durP2;ratioP2;P2;SDS_P1;SDS_P2;PMS_P1;PMS_P2;Temp;Humidity;BMP_temperature;BMP_pressure;BME280_temperature;BME280_humidity;BME280_pressure;Samples;Min_cycle;Max_cycle;Signal;HPM_P1;HPM_P2
2022/06/13 00:02:51;;;;;;;3.17;2.80;;;24.40;57.20;;;;;;6300503;27;80824;-78
2022/06/13 00:05:51;;;;;;;10.77;2.97;;;24.40;57.20;;;;;;6296304;27;80728;-82
2022/06/13 00:08:52;;;;;;;4.00;2.83;;;24.40;57.10;;;;;;6264440;27;83329;-81
2022/06/13 00:11:52;;;;;;;4.90;3.33;;;24.40;57.10;;;;;;6309249;27;80378;-79
2022/06/13 00:14:53;;;;;;;4.75;2.97;;;24.40;56.80;;;;;;6304867;27;80318;-79
2022/06/13 00:17:53;;;;;;;6.70;2.95;;;24.30;56.90;;;;;;6304547;27;80158;-73
2022/06/13 00:20:54;;;;;;;4.13;2.67;;;24.20;57.20;;;;;;6302426;27;80668;-75
2022/06/13 00:23:54;;;;;;;4.85;3.10;;;24.20;57.20;;;;;;6309270;27;80282;-76
2022/06/13 00:26:54;;;;;;;3.45;2.72;;;24.20;57.30;;;;;;6299129;27;81813;-76
2022/06/13 00:29:55;;;;;;;4.57;3.15;;;24.20;57.30;;;;;;6287635;27;81661;-78
2022/06/13 00:32:56;;;;;;;4.65;2.50;;;24.20;57.30;;;;;;6303182;27;80328;-75
2022/06/13 00:35:57;;;;;;;6.05;3.08;;;24.20;57.30;;;;;;6292599;27;80870;-74
2022/06/13 00:38:57;;;;;;;4.78;2.58;;;24.30;57.30;;;;;;6297126;27;80500;-74
2022/06/13 00:41:57;;;;;;;5.20;3.08;;;24.30;57.30;;;;;;6292775;27;80636;-74
2022/06/13 00:44:58;;;;;;;5.57;2.80;;;24.30;57.20;;;;;;6306655;27;80478;-74
2022/06/13 00:47:58;;;;;;;3.95;2.83;;;24.30;57.00;;;;;;6305436;27;80332;-74
2022/06/13 00:50:59;;;;;;;4.50;2.90;;;24.30;56.90;;;;;;6301598;27;80402;-74
2022/06/13 00:54:00;;;;;;;3.40;2.72;;;24.30;56.90;;;;;;6289732;27;87941;-73
2022/06/13 00:57:00;;;;;;;3.10;2.75;;;24.30;56.90;;;;;;6289241;27;80472;-72
2022/06/13 01:00:01;;;;;;;4.85;2.42;;;24.30;57.00;;;;;;6306248;27;80636;-72
2022/06/13 01:03:01;;;;;;;7.35;3.10;;;24.20;57.20;;;;;;6302003;27;82062;-72
2022/06/13 01:06:02;;;;;;;5.30;2.88;;;24.20;57.30;;;;;;6306377;27;80765;-73
2022/06/13 01:09:03;;;;;;;3.55;2.85;;;24.20;57.30;;;;;;6308412;27;80542;-75
2022/06/13 01:12:03;;;;;;;3.10;2.80;;;24.20;57.20;;;;;;6305289;27;81176;-74
2022/06/13 01:15:04;;;;;;;4.28;2.75;;;24.20;57.20;;;;;;6305952;27;80500;-73
2022/06/13 01:18:04;;;;;;;3.25;2.47;;;24.20;57.20;;;;;;6306469;27;80497;-72
2022/06/13 01:21:05;;;;;;;3.72;2.53;;;24.20;57.20;;;;;;6307355;27;80369;-73
2022/06/13 01:24:05;;;;;;;3.45;2.60;;;24.30;57.20;;;;;;6305372;27;80457;-73
2022/06/13 01:27:06;;;;;;;3.80;2.80;;;24.20;57.20;;;;;;6296643;27;80532;-72
2022/06/13 01:30:06;;;;;;;5.03;2.47;;;24.10;57.30;;;;;;6304080;27;80986;-74
2022/06/13 01:33:06;;;;;;;3.33;2.53;;;24.10;57.40;;;;;;6303059;27;81220;-72
2022/06/13 01:36:07;;;;;;;3.70;2.72;;;24.00;57.40;;;;;;6278749;27;80479;-72
2022/06/13 01:39:07;;;;;;;3.45;2.72;;;24.00;57.50;;;;;;6305828;27;80819;-72
2022/06/13 01:42:08;;;;;;;5.05;2.50;;;24.00;57.40;;;;;;6305797;27;80665;-73
2022/06/13 01:45:08;;;;;;;3.45;2.50;;;24.10;57.40;;;;;;6301389;27;80403;-73
2022/06/13 01:48:09;;;;;;;3.42;2.35;;;24.10;57.30;;;;;;6302778;27;80443;-74
2022/06/13 01:51:09;;;;;;;5.40;2.70;;;24.10;57.10;;;;;;6299427;27;80637;-73
2022/06/13 01:54:10;;;;;;;3.67;2.70;;;24.10;56.90;;;;;;6302418;27;81622;-73
2022/06/13 01:57:10;;;;;;;3.53;2.45;;;24.10;57.10;;;;;;6307306;27;80660;-72
2022/06/13 02:00:11;;;;;;;4.60;2.85;;;24.10;57.10;;;;;;6288773;27;83039;-72
2022/06/13 02:03:11;;;;;;;5.22;2.70;;;24.10;57.10;;;;;;6305282;27;80627;-73
2022/06/13 02:06:12;;;;;;;6.65;2.75;;;24.10;57.10;;;;;;6298755;27;80596;-74
2022/06/13 02:09:12;;;;;;;3.40;2.45;;;24.10;57.00;;;;;;6304311;27;80331;-74
2022/06/13 02:12:13;;;;;;;3.88;2.60;;;24.20;57.00;;;;;;6302411;27;80366;-73
2022/06/13 02:15:13;;;;;;;4.63;2.80;;;24.20;56.90;;;;;;6310546;27;80502;-71
2022/06/13 02:18:14;;;;;;;3.15;2.75;;;24.20;56.80;;;;;;6290126;27;80888;-69
2022/06/13 02:21:14;;;;;;;3.25;2.50;;;24.20;56.90;;;;;;6307413;27;80153;-73
2022/06/13 02:24:15;;;;;;;5.80;3.00;;;24.10;56.90;;;;;;6310179;27;81753;-74
2022/06/13 02:27:15;;;;;;;5.15;2.60;;;24.10;56.90;;;;;;6309411;27;80317;-71
2022/06/13 02:30:16;;;;;;;5.28;3.30;;;24.10;57.00;;;;;;6308469;27;80687;-71
2022/06/13 02:33:16;;;;;;;4.78;2.97;;;24.00;56.90;;;;;;6311316;27;80654;-72
2022/06/13 02:36:17;;;;;;;2.53;2.28;;;24.00;56.80;;;;;;6307443;27;80549;-72
2022/06/13 02:39:17;;;;;;;3.22;2.60;;;23.90;56.90;;;;;;6302358;27;80261;-73
2022/06/13 02:42:18;;;;;;;4.15;2.40;;;23.80;57.10;;;;;;6310714;27;80425;-72
2022/06/13 02:45:18;;;;;;;2.88;2.22;;;23.80;57.10;;;;;;6307255;27;81463;-72
2022/06/13 02:48:19;;;;;;;3.25;2.58;;;23.70;57.10;;;;;;6302488;27;80303;-73
2022/06/13 02:51:19;;;;;;;3.97;2.85;;;23.70;57.20;;;;;;6310751;27;80180;-74
2022/06/13 02:54:20;;;;;;;3.70;2.72;;;23.70;57.30;;;;;;6308040;27;80169;-73
2022/06/13 02:57:23;;;;;;;5.30;2.88;;;23.70;57.20;;;;;;6303447;27;81220;-73
2022/06/13 03:00:24;;;;;;;3.33;2.60;;;23.70;57.30;;;;;;6287947;27;81142;-74
2022/06/13 03:03:24;;;;;;;3.80;2.80;;;23.70;57.10;;;;;;6303414;27;80898;-73
2022/06/13 03:06:25;;;;;;;7.88;2.53;;;23.70;57.00;;;;;;6306938;27;81320;-74
2022/06/13 03:09:25;;;;;;;5.63;3.17;;;23.60;57.00;;;;;;6308803;27;80814;-74
2022/06/13 03:12:27;;;;;;;5.82;3.70;;;23.60;56.90;;;;;;6303568;27;80456;-74
2022/06/13 03:15:27;;;;;;;5.60;3.40;;;23.40;57.30;;;;;;6304813;27;81452;-73
2022/06/13 03:18:28;;;;;;;6.57;3.53;;;23.40;57.30;;;;;;6295616;27;80584;-71
2022/06/13 03:21:28;;;;;;;6.95;3.08;;;23.50;57.00;;;;;;6304673;27;81226;-70
2022/06/13 03:24:29;;;;;;;3.78;2.95;;;23.50;56.70;;;;;;6308480;27;80648;-70
2022/06/13 03:27:29;;;;;;;5.53;2.90;;;23.60;56.60;;;;;;6309444;27;80455;-70
2022/06/13 03:30:30;;;;;;;6.00;2.95;;;23.70;56.40;;;;;;6275190;27;80744;-69
2022/06/13 03:33:40;;;;;;;12.05;3.85;;;23.70;56.90;;;;;;6296299;27;81058;-72
2022/06/13 03:36:40;;;;;;;4.32;3.22;;;23.80;57.70;;;;;;6292874;27;80651;-65
2022/06/13 03:39:41;;;;;;;4.90;3.35;;;23.90;57.30;;;;;;6295586;27;80345;-64
2022/06/13 03:42:41;;;;;;;6.45;3.88;;;24.00;57.20;;;;;;6305695;27;80825;-65
2022/06/13 03:45:42;;;;;;;5.10;3.08;;;24.00;57.00;;;;;;6306862;27;80898;-64
2022/06/13 03:48:42;;;;;;;8.05;3.55;;;24.00;57.00;;;;;;6301541;27;80810;-67
2022/06/13 03:51:43;;;;;;;5.13;3.28;;;24.10;57.10;;;;;;6297405;27;80240;-64
2022/06/13 03:54:43;;;;;;;7.97;4.00;;;24.10;57.60;;;;;;6301912;27;80713;-64
2022/06/13 03:57:44;;;;;;;6.07;4.03;;;24.20;57.60;;;;;;6296911;27;80458;-63
2022/06/13 04:00:44;;;;;;;3.40;2.63;;;24.20;57.60;;;;;;6303753;27;81155;-67
2022/06/13 04:03:45;;;;;;;7.70;2.88;;;24.30;58.10;;;;;;6299263;27;81339;-66
2022/06/13 04:06:45;;;;;;;6.35;2.88;;;24.30;58.20;;;;;;6305679;27;80721;-67
2022/06/13 04:09:46;;;;;;;7.88;2.80;;;24.30;58.80;;;;;;6303149;27;80739;-66
2022/06/13 04:12:46;;;;;;;5.85;2.95;;;24.30;58.30;;;;;;6306687;27;80432;-66
2022/06/13 04:15:48;;;;;;;9.10;2.85;;;24.40;58.80;;;;;;6296583;27;80546;-68
2022/06/13 04:18:49;;;;;;;4.70;2.92;;;24.40;58.50;;;;;;6296928;27;80933;-65
2022/06/13 04:21:49;;;;;;;4.10;2.90;;;24.40;58.60;;;;;;6300348;27;80842;-66
2022/06/13 04:24:50;;;;;;;7.10;3.53;;;24.40;59.30;;;;;;6302552;27;80488;-66
2022/06/13 04:27:50;;;;;;;4.75;3.22;;;24.40;59.40;;;;;;6275560;27;84205;-66
2022/06/13 04:30:51;;;;;;;7.05;3.28;;;24.40;59.80;;;;;;6296295;27;80785;-66
2022/06/13 04:33:51;;;;;;;7.53;3.15;;;24.40;59.70;;;;;;6294542;27;80257;-66
2022/06/13 04:36:52;;;;;;;8.07;3.10;;;24.50;60.00;;;;;;6297011;27;80524;-66
2022/06/13 04:39:52;;;;;;;3.88;2.80;;;24.50;60.00;;;;;;6298138;27;80472;-64
2022/06/13 04:42:53;;;;;;;6.93;2.80;;;24.50;60.00;;;;;;6294979;27;80321;-67
2022/06/13 04:45:53;;;;;;;6.43;3.25;;;24.60;59.50;;;;;;6306096;27;80935;-66
2022/06/13 04:48:53;;;;;;;7.40;3.03;;;24.60;59.60;;;;;;6295130;27;80931;-67
2022/06/13 04:51:54;;;;;;;6.93;3.08;;;24.70;59.30;;;;;;6300992;27;81408;-67
2022/06/13 04:54:55;;;;;;;5.53;2.92;;;24.70;59.20;;;;;;6303107;27;80471;-66
2022/06/13 04:57:56;;;;;;;6.47;2.90;;;24.70;59.20;;;;;;6297646;27;80702;-66
2022/06/13 05:00:57;;;;;;;4.75;2.83;;;24.70;59.10;;;;;;6299003;27;80403;-66
2022/06/13 05:03:57;;;;;;;3.35;2.63;;;24.70;59.20;;;;;;6289302;27;81895;-67
2022/06/13 05:06:57;;;;;;;6.18;3.60;;;24.70;58.60;;;;;;6297497;27;80688;-65
2022/06/13 05:10:00;;;;;;;8.27;3.03;;;24.70;58.80;;;;;;6299426;27;80507;-65
2022/06/13 05:13:00;;;;;;;4.88;2.70;;;24.70;58.60;;;;;;6293607;27;80621;-66
2022/06/13 05:16:01;;;;;;;4.68;2.25;;;24.70;58.20;;;;;;6307795;27;80461;-69
2022/06/13 05:19:01;;;;;;;4.63;2.58;;;24.70;57.60;;;;;;6306983;27;80518;-67
2022/06/13 05:22:02;;;;;;;12.43;2.97;;;24.60;56.90;;;;;;6303318;27;80846;-66
2022/06/13 05:25:03;;;;;;;7.45;2.80;;;24.60;56.70;;;;;;6304858;27;81835;-66
2022/06/13 05:28:03;;;;;;;3.30;2.33;;;24.60;56.20;;;;;;6304001;27;81702;-66
2022/06/13 05:31:04;;;;;;;4.82;2.97;;;24.50;56.20;;;;;;6316814;27;80292;-66
2022/06/13 05:34:04;;;;;;;2.90;2.60;;;24.50;56.20;;;;;;6300297;27;81234;-65
2022/06/13 05:37:05;;;;;;;4.32;2.58;;;24.50;56.00;;;;;;6302020;27;81632;-65
2022/06/13 05:40:06;;;;;;;5.88;2.15;;;24.50;55.90;;;;;;6300834;27;80741;-66
2022/06/13 05:43:06;;;;;;;7.70;2.88;;;24.50;54.90;;;;;;6304070;27;81054;-66
2022/06/13 05:46:07;;;;;;;3.03;2.10;;;24.40;55.50;;;;;;6309907;27;80652;-66
2022/06/13 05:49:07;;;;;;;2.55;2.35;;;24.40;55.50;;;;;;6310438;27;80469;-67
2022/06/13 05:52:08;;;;;;;6.72;2.72;;;24.40;55.20;;;;;;6299328;27;80916;-66
2022/06/13 05:55:08;;;;;;;4.28;2.33;;;24.40;55.30;;;;;;6302732;27;80324;-66
2022/06/13 05:58:08;;;;;;;3.65;2.38;;;24.50;55.10;;;;;;6305389;27;81238;-66
2022/06/13 06:01:09;;;;;;;3.35;2.65;;;24.50;55.00;;;;;;6305394;27;80432;-65
2022/06/13 06:04:09;;;;;;;3.85;2.20;;;24.50;54.90;;;;;;6305435;27;82214;-66
2022/06/13 06:07:10;;;;;;;4.13;2.83;;;24.50;54.90;;;;;;6286190;27;87390;-69
2022/06/13 06:10:10;;;;;;;3.08;2.58;;;24.50;54.70;;;;;;6310069;27;80250;-67
2022/06/13 06:13:11;;;;;;;3.00;2.17;;;24.50;54.70;;;;;;6300106;27;80298;-66
2022/06/13 06:16:11;;;;;;;2.55;2.28;;;24.50;54.70;;;;;;6313411;27;81608;-66
2022/06/13 06:19:12;;;;;;;5.18;2.42;;;24.50;54.60;;;;;;6304779;27;80616;-65
2022/06/13 06:22:13;;;;;;;5.38;2.47;;;24.50;54.50;;;;;;6306271;27;80676;-65
2022/06/13 06:25:14;;;;;;;4.85;2.20;;;24.60;54.50;;;;;;6281749;27;81009;-66
2022/06/13 06:28:15;;;;;;;4.55;2.45;;;24.60;54.40;;;;;;6303479;27;80506;-65
2022/06/13 06:31:15;;;;;;;2.42;2.00;;;24.60;54.40;;;;;;6296218;27;80535;-66
2022/06/13 06:34:16;;;;;;;4.57;2.22;;;24.60;54.50;;;;;;6284334;27;80193;-65
2022/06/13 06:37:16;;;;;;;2.92;2.35;;;24.60;54.50;;;;;;6299954;27;81657;-66
2022/06/13 06:40:17;;;;;;;3.40;2.22;;;24.60;54.70;;;;;;6286990;27;80654;-66
2022/06/13 06:43:17;;;;;;;3.28;2.10;;;24.70;54.70;;;;;;6305434;27;81464;-66
2022/06/13 06:46:18;;;;;;;2.72;2.13;;;24.70;54.70;;;;;;6298066;27;83568;-66
2022/06/13 06:49:18;;;;;;;4.97;2.38;;;24.70;54.70;;;;;;6291621;27;80932;-66
2022/06/13 06:52:19;;;;;;;3.90;2.60;;;24.70;54.80;;;;;;6296648;27;80501;-66
2022/06/13 07:01:54;;;;;;;3.78;2.25;;;24.80;55.00;;;;;;6291184;27;80467;-66
2022/06/13 07:04:55;;;;;;;2.65;2.17;;;24.80;55.20;;;;;;6317605;27;80497;-66
2022/06/13 07:07:55;;;;;;;6.30;2.60;;;24.80;55.20;;;;;;6294022;27;81752;-66
2022/06/13 07:11:53;;;;;;;2.70;2.03;;;24.80;55.30;;;;;;6310001;27;80307;-66
2022/06/13 07:14:16;;;;;;;4.28;2.42;;;24.80;55.40;;;;;;6277387;27;85464;-66
2022/06/13 07:17:17;;;;;;;5.38;2.65;;;24.80;55.40;;;;;;6302392;27;80427;-66
2022/06/13 07:20:17;;;;;;;4.63;2.30;;;24.80;55.40;;;;;;6304735;27;80303;-67
2022/06/13 07:23:18;;;;;;;4.90;2.88;;;24.80;55.40;;;;;;6309908;27;82439;-66
2022/06/13 07:26:18;;;;;;;5.50;2.63;;;24.90;55.40;;;;;;6314107;27;80572;-66
2022/06/13 07:29:19;;;;;;;3.85;2.22;;;24.90;55.20;;;;;;6309877;27;82220;-65
2022/06/13 07:32:19;;;;;;;3.15;2.28;;;24.90;55.30;;;;;;6314924;27;80200;-66
2022/06/13 07:35:20;;;;;;;4.57;2.60;;;24.90;55.50;;;;;;6304869;27;87510;-66
2022/06/13 07:38:21;;;;;;;2.85;2.30;;;24.90;55.50;;;;;;6309137;27;80413;-66
2022/06/13 07:41:21;;;;;;;4.25;2.55;;;24.90;55.60;;;;;;6303484;27;80539;-66
2022/06/13 07:44:22;;;;;;;9.48;2.63;;;24.90;55.70;;;;;;6309350;27;80582;-67
2022/06/13 07:47:23;;;;;;;3.95;2.40;;;24.90;55.60;;;;;;6306734;27;80503;-65
2022/06/13 07:50:23;;;;;;;2.83;2.50;;;24.90;55.60;;;;;;6306767;27;81448;-67
2022/06/13 07:53:24;;;;;;;3.20;2.45;;;24.90;55.60;;;;;;6306936;27;80413;-67
2022/06/13 07:56:24;;;;;;;5.68;2.40;;;25.00;55.80;;;;;;6308838;27;81494;-67
2022/06/13 07:59:25;;;;;;;5.18;2.30;;;25.00;55.80;;;;;;6305312;27;80462;-70
2022/06/13 08:02:25;;;;;;;3.35;2.22;;;25.00;55.80;;;;;;6296300;27;80969;-70
2022/06/13 08:05:26;;;;;;;6.88;2.70;;;25.00;56.00;;;;;;6286955;27;81539;-71
2022/06/13 08:08:27;;;;;;;4.65;2.50;;;25.10;56.10;;;;;;6304202;27;81029;-71
2022/06/13 08:11:27;;;;;;;5.82;2.30;;;25.10;56.10;;;;;;6310289;27;80401;-70
2022/06/13 08:14:27;;;;;;;8.40;3.38;;;25.10;56.10;;;;;;6305703;27;80176;-71
2022/06/13 08:17:28;;;;;;;11.20;3.45;;;25.10;56.20;;;;;;6299059;27;80907;-70
2022/06/13 08:20:29;;;;;;;3.45;2.85;;;25.10;56.40;;;;;;6302407;27;81699;-70
2022/06/13 08:23:29;;;;;;;47.00;21.48;;;25.10;56.40;;;;;;6301197;27;80224;-71
2022/06/13 08:26:30;;;;;;;128.00;60.38;;;25.10;57.10;;;;;;6300243;27;83096;-70
2022/06/13 08:29:31;;;;;;;141.18;65.38;;;25.10;56.50;;;;;;6294958;27;88824;-69
2022/06/13 08:32:31;;;;;;;252.90;111.43;;;25.20;56.70;;;;;;6295208;27;83731;-69
2022/06/13 08:35:32;;;;;;;260.60;115.93;;;25.20;56.70;;;;;;6287473;27;86104;-71
2022/06/13 08:38:32;;;;;;;247.85;115.10;;;25.20;56.70;;;;;;6287958;27;85887;-69
2022/06/13 08:41:33;;;;;;;216.63;103.25;;;25.20;56.60;;;;;;6297335;27;85550;-68
2022/06/13 08:44:33;;;;;;;187.85;82.53;;;25.20;56.40;;;;;;6305433;27;85828;-70
2022/06/13 08:47:34;;;;;;;112.18;43.97;;;25.30;56.30;;;;;;6294228;27;84672;-70
2022/06/13 08:50:34;;;;;;;79.88;34.20;;;25.20;55.60;;;;;;6304428;27;83048;-70
2022/06/13 08:53:35;;;;;;;62.20;28.27;;;25.30;55.70;;;;;;6286531;27;83929;-71
2022/06/13 08:56:35;;;;;;;29.90;15.43;;;25.30;55.50;;;;;;6294601;27;87668;-71
2022/06/13 08:59:36;;;;;;;27.35;10.90;;;25.30;54.90;;;;;;6302473;27;84097;-69
2022/06/13 09:02:36;;;;;;;26.65;12.13;;;25.30;54.60;;;;;;6300311;27;82938;-71
2022/06/13 09:05:37;;;;;;;27.45;10.95;;;25.30;54.90;;;;;;6299431;27;83351;-70
2022/06/13 09:08:37;;;;;;;22.65;11.60;;;25.30;55.10;;;;;;6302605;27;83099;-69
2022/06/13 09:11:38;;;;;;;21.38;10.95;;;25.40;55.20;;;;;;6298452;27;83064;-70
2022/06/13 09:14:38;;;;;;;22.20;10.23;;;25.40;55.00;;;;;;6306016;27;83274;-70
2022/06/13 09:17:39;;;;;;;17.33;8.65;;;25.40;54.70;;;;;;6294558;27;83105;-71
2022/06/13 09:20:39;;;;;;;21.20;8.48;;;25.40;54.20;;;;;;6300921;27;82734;-72
2022/06/13 09:23:39;;;;;;;19.17;7.07;;;25.50;54.30;;;;;;6298996;27;80608;-73
2022/06/13 09:26:40;;;;;;;16.90;6.20;;;25.50;54.30;;;;;;6304605;27;80865;-73
2022/06/13 09:29:40;;;;;;;9.50;5.68;;;25.50;54.20;;;;;;6306039;27;81096;-73
2022/06/13 09:32:41;;;;;;;16.00;7.28;;;25.50;54.00;;;;;;6297673;27;80431;-79
2022/06/13 09:35:41;;;;;;;19.02;8.05;;;25.50;54.60;;;;;;6300046;27;80803;-72
2022/06/13 09:38:42;;;;;;;11.18;7.10;;;25.50;54.20;;;;;;6304360;27;80554;-72
2022/06/13 09:41:42;;;;;;;19.85;7.38;;;25.60;54.10;;;;;;6294019;27;80635;-69
2022/06/13 09:44:43;;;;;;;14.82;6.38;;;25.60;53.50;;;;;;6302934;27;80135;-72
2022/06/13 09:47:43;;;;;;;14.93;6.65;;;25.60;53.90;;;;;;6306239;27;80999;-71
2022/06/13 09:50:44;;;;;;;12.32;6.03;;;25.70;53.60;;;;;;6303338;27;81537;-71
2022/06/13 09:53:45;;;;;;;13.93;6.10;;;25.60;54.00;;;;;;6284287;27;82120;-71
2022/06/13 09:56:45;;;;;;;16.45;7.75;;;25.70;54.50;;;;;;6302955;27;80442;-69
2022/06/13 09:59:48;;;;;;;15.95;6.68;;;25.70;54.60;;;;;;6308022;27;80681;-70
2022/06/13 10:02:48;;;;;;;11.90;4.55;;;25.70;54.40;;;;;;6304075;27;81472;-69
2022/06/13 10:05:49;;;;;;;9.98;4.90;;;25.70;54.00;;;;;;6297616;27;80564;-70
2022/06/13 10:08:49;;;;;;;7.60;4.47;;;25.70;54.00;;;;;;6296188;27;80880;-70
2022/06/13 10:11:50;;;;;;;8.43;5.20;;;25.70;54.00;;;;;;6296265;27;81616;-70
2022/06/13 10:14:51;;;;;;;11.60;4.70;;;25.70;54.10;;;;;;6286345;27;80778;-71
2022/06/13 10:17:52;;;;;;;11.50;4.80;;;25.70;54.20;;;;;;6304878;27;80653;-70
2022/06/13 10:20:53;;;;;;;8.20;4.22;;;25.80;54.40;;;;;;6299812;27;80798;-70
2022/06/13 10:23:54;;;;;;;10.25;5.25;;;25.80;54.50;;;;;;6290126;27;80467;-71
2022/06/13 10:26:54;;;;;;;12.18;4.38;;;25.70;54.50;;;;;;6292079;27;81568;-72
2022/06/13 10:29:55;;;;;;;8.35;4.45;;;25.70;54.30;;;;;;6280125;27;82003;-69
2022/06/13 10:32:56;;;;;;;5.95;4.18;;;25.70;54.30;;;;;;6289037;27;85135;-70
2022/06/13 10:35:56;;;;;;;5.28;4.03;;;25.60;54.60;;;;;;6298354;27;80945;-70
2022/06/13 10:38:57;;;;;;;9.35;4.30;;;25.70;54.60;;;;;;6292090;27;80506;-70
2022/06/13 10:41:57;;;;;;;8.02;4.13;;;25.60;54.60;;;;;;6294987;27;81029;-69
2022/06/13 10:44:58;;;;;;;5.53;3.67;;;25.60;54.60;;;;;;6288476;27;80453;-70
2022/06/13 10:47:58;;;;;;;7.32;3.10;;;25.60;54.70;;;;;;6282488;27;80335;-70
2022/06/13 10:50:59;;;;;;;7.50;3.60;;;25.60;54.70;;;;;;6278465;27;82818;-69
2022/06/13 10:54:01;;;;;;;8.38;3.65;;;25.50;54.40;;;;;;6286040;27;80536;-68
2022/06/13 10:57:02;;;;;;;4.13;3.33;;;25.60;54.70;;;;;;6292643;27;80897;-70
2022/06/13 11:00:02;;;;;;;7.88;3.40;;;25.50;54.40;;;;;;6295482;27;80721;-68
2022/06/13 11:03:02;;;;;;;6.32;3.22;;;25.50;54.30;;;;;;6309379;27;81665;-68
2022/06/13 11:06:04;;;;;;;5.88;2.95;;;25.50;54.50;;;;;;6298046;27;80636;-69
2022/06/13 11:09:04;;;;;;;4.90;2.92;;;25.40;53.60;;;;;;6301578;27;80524;-71
2022/06/13 11:12:05;;;;;;;6.70;3.03;;;25.40;53.60;;;;;;6309057;27;80760;-70
2022/06/13 11:25:03;;;;;;;4.65;2.70;;;25.30;54.30;;;;;;6307419;27;80585;-68
2022/06/13 11:28:03;;;;;;;6.68;2.97;;;25.30;54.40;;;;;;6316094;27;80924;-69
2022/06/13 11:31:04;;;;;;;7.07;2.63;;;25.30;54.50;;;;;;6292487;27;80880;-72
2022/06/13 11:34:04;;;;;;;5.90;2.78;;;25.30;54.50;;;;;;6309827;27;80510;-70
2022/06/13 11:37:05;;;;;;;4.25;2.63;;;25.30;54.60;;;;;;6286403;27;81078;-69
2022/06/13 11:40:05;;;;;;;6.03;2.60;;;25.30;54.50;;;;;;6292874;27;80354;-68
2022/06/13 11:43:06;;;;;;;4.57;3.03;;;25.30;54.70;;;;;;6292452;27;80887;-69
2022/06/13 11:46:06;;;;;;;5.45;2.55;;;25.30;54.60;;;;;;6297949;27;80441;-69
2022/06/13 11:49:07;;;;;;;4.28;2.70;;;25.30;54.40;;;;;;6269524;27;81758;-68
2022/06/13 11:52:08;;;;;;;4.68;3.10;;;25.30;54.30;;;;;;6304886;27;80506;-69
2022/06/13 11:55:08;;;;;;;6.38;2.80;;;25.30;54.50;;;;;;6298316;27;80715;-70
2022/06/13 11:58:09;;;;;;;3.88;2.38;;;25.30;54.30;;;;;;6295639;27;80615;-69
2022/06/13 12:01:09;;;;;;;3.97;2.95;;;25.30;54.40;;;;;;6282212;27;80551;-69
2022/06/13 12:04:10;;;;;;;4.10;2.60;;;25.30;54.60;;;;;;6287082;27;81343;-68
2022/06/13 12:07:10;;;;;;;6.78;2.60;;;25.30;54.30;;;;;;6301288;27;81334;-71
2022/06/13 12:10:11;;;;;;;9.15;2.75;;;25.30;54.30;;;;;;6305469;27;80542;-71
2022/06/13 12:13:12;;;;;;;6.40;2.50;;;25.30;54.50;;;;;;6304616;27;80448;-66
2022/06/13 12:16:12;;;;;;;22.55;2.67;;;25.30;54.40;;;;;;6301948;27;80522;-68
2022/06/13 12:19:12;;;;;;;7.45;3.15;;;25.30;54.50;;;;;;6303886;27;80580;-67
2022/06/13 12:22:14;;;;;;;6.20;2.30;;;25.30;54.50;;;;;;6307447;27;80544;-65
2022/06/13 12:25:15;;;;;;;5.53;2.92;;;25.30;54.50;;;;;;6308191;27;81121;-68
2022/06/13 12:28:15;;;;;;;5.88;2.72;;;25.30;54.70;;;;;;6306425;27;80712;-71
2022/06/13 12:31:16;;;;;;;4.18;3.08;;;25.30;55.00;;;;;;6301893;27;80767;-71
2022/06/13 12:34:16;;;;;;;5.80;2.60;;;25.20;54.80;;;;;;6290283;27;80475;-71
2022/06/13 12:37:17;;;;;;;3.72;2.72;;;25.20;54.90;;;;;;6309022;27;81472;-69
2022/06/13 12:40:18;;;;;;;5.18;2.72;;;25.10;54.80;;;;;;6310000;27;80494;-68
2022/06/13 12:43:19;;;;;;;7.70;2.25;;;25.10;54.60;;;;;;6288225;27;80546;-69
2022/06/13 12:46:20;;;;;;;5.72;2.67;;;25.10;54.50;;;;;;6302579;27;80418;-70
2022/06/13 12:49:20;;;;;;;4.95;1.83;;;25.10;55.00;;;;;;6286806;27;83428;-67
2022/06/13 12:52:21;;;;;;;2.83;2.20;;;25.10;55.00;;;;;;6291993;27;80564;-71
2022/06/13 12:55:21;;;;;;;17.42;2.55;;;25.10;55.80;;;;;;6310198;27;80324;-70
2022/06/13 12:58:22;;;;;;;9.32;2.75;;;25.10;56.00;;;;;;6299234;27;86674;-70
2022/06/13 13:01:22;;;;;;;15.02;3.70;;;25.20;56.50;;;;;;6308370;27;80818;-69
2022/06/13 13:04:23;;;;;;;3.95;2.35;;;25.20;56.60;;;;;;6296013;27;80936;-69
2022/06/13 13:07:23;;;;;;;8.45;2.50;;;25.20;56.80;;;;;;6276722;27;81054;-69
2022/06/13 13:10:24;;;;;;;13.00;2.25;;;25.20;56.60;;;;;;6304109;27;80280;-69
2022/06/13 13:13:24;;;;;;;25.80;2.90;;;25.30;57.00;;;;;;6306670;27;80611;-71
2022/06/13 13:16:25;;;;;;;3.10;2.03;;;25.20;56.20;;;;;;6301457;27;80745;-69
2022/06/13 13:19:25;;;;;;;3.88;2.25;;;25.30;55.10;;;;;;6301314;27;81142;-68
2022/06/13 13:22:26;;;;;;;10.43;2.60;;;25.30;54.80;;;;;;6297136;27;80641;-70
2022/06/13 13:25:26;;;;;;;4.00;2.22;;;25.20;55.30;;;;;;6292899;27;81113;-68
2022/06/13 13:28:27;;;;;;;5.78;2.40;;;25.20;55.30;;;;;;6303793;27;80588;-67
2022/06/13 13:31:29;;;;;;;5.72;2.25;;;25.20;55.20;;;;;;6296809;27;81214;-68
2022/06/13 13:34:30;;;;;;;3.58;2.15;;;25.20;55.50;;;;;;6294978;27;80367;-68
2022/06/13 13:37:30;;;;;;;45.63;15.38;;;25.20;55.50;;;;;;6299410;27;80365;-68
2022/06/13 13:40:30;;;;;;;44.55;19.88;;;25.20;55.30;;;;;;6304405;27;83274;-68
2022/06/13 13:43:31;;;;;;;81.22;34.55;;;25.20;55.40;;;;;;6295061;27;82828;-68
2022/06/13 13:46:31;;;;;;;166.05;68.70;;;25.20;55.60;;;;;;6294014;27;83060;-69
2022/06/13 13:49:32;;;;;;;222.63;96.53;;;25.20;55.70;;;;;;6304170;27;84310;-68
2022/06/13 13:52:32;;;;;;;145.75;62.58;;;25.20;56.10;;;;;;6302318;27;83114;-71
2022/06/13 13:55:33;;;;;;;69.88;31.33;;;25.20;56.30;;;;;;6305483;27;82735;-70
2022/06/13 13:58:33;;;;;;;24.45;11.55;;;25.20;56.30;;;;;;6300564;27;83437;-68
2022/06/13 14:01:34;;;;;;;24.83;8.73;;;25.20;56.00;;;;;;6295788;27;83182;-70
2022/06/13 14:04:34;;;;;;;14.20;6.43;;;25.10;56.00;;;;;;6303147;27;83373;-71
2022/06/13 14:07:35;;;;;;;9.85;4.78;;;25.10;56.20;;;;;;6297926;27;80227;-73
2022/06/13 14:10:35;;;;;;;13.75;5.20;;;25.00;56.50;;;;;;6308367;27;81771;-68
2022/06/13 14:13:37;;;;;;;9.45;4.10;;;25.00;56.90;;;;;;6302281;27;80836;-74
2022/06/13 14:16:37;;;;;;;6.72;3.72;;;25.00;56.90;;;;;;6307701;27;80314;-71
2022/06/13 14:19:37;;;;;;;5.85;3.17;;;25.00;57.20;;;;;;6306012;27;80543;-71
2022/06/13 14:22:38;;;;;;;7.22;2.75;;;24.90;57.20;;;;;;6308986;27;80393;-73
2022/06/13 14:25:39;;;;;;;4.75;2.92;;;24.90;57.10;;;;;;6301135;27;81255;-72
2022/06/13 14:28:39;;;;;;;5.82;3.10;;;24.90;57.10;;;;;;6298740;27;80363;-71
2022/06/13 14:31:39;;;;;;;4.50;2.83;;;24.80;56.90;;;;;;6311410;27;80395;-72
2022/06/13 14:37:59;;;;;;;3.03;2.40;;;24.70;57.10;;;;;;6308293;27;80490;-71
2022/06/13 14:41:00;;;;;;;3.63;2.15;;;24.70;57.20;;;;;;6311953;27;80733;-69
2022/06/13 14:44:00;;;;;;;4.28;2.63;;;24.80;57.30;;;;;;6304470;27;80295;-65
2022/06/13 14:47:01;;;;;;;4.28;2.40;;;24.90;57.40;;;;;;6309081;27;80474;-69
2022/06/13 14:50:01;;;;;;;4.07;2.55;;;24.90;57.40;;;;;;6311598;27;80362;-73
2022/06/13 14:53:01;;;;;;;4.55;2.80;;;24.90;57.70;;;;;;6316259;27;80738;-70
2022/06/13 14:56:02;;;;;;;6.60;2.63;;;25.00;57.60;;;;;;6311701;27;82967;-72
2022/06/13 14:59:02;;;;;;;3.95;2.70;;;25.00;57.40;;;;;;6312143;27;80667;-72
2022/06/13 15:02:03;;;;;;;5.78;2.58;;;25.00;57.40;;;;;;6311538;27;82184;-69
2022/06/13 15:05:03;;;;;;;3.10;2.67;;;25.00;57.60;;;;;;6311409;27;80520;-75
2022/06/13 15:08:04;;;;;;;3.25;2.60;;;24.90;58.00;;;;;;6298945;27;80834;-74
2022/06/13 15:11:05;;;;;;;5.65;2.72;;;25.00;58.00;;;;;;6288487;27;80351;-73
2022/06/13 15:14:06;;;;;;;3.90;2.17;;;25.10;58.00;;;;;;6309807;27;81182;-64
2022/06/13 15:17:06;;;;;;;7.53;2.97;;;25.10;58.20;;;;;;6284780;27;81338;-69
2022/06/13 15:20:06;;;;;;;4.70;2.60;;;25.10;58.60;;;;;;6307214;27;80645;-69
2022/06/13 15:23:07;;;;;;;4.45;2.20;;;25.10;59.00;;;;;;6303717;27;82168;-73
2022/06/13 15:26:09;;;;;;;8.40;2.95;;;25.10;59.30;;;;;;6300471;27;80261;-70
2022/06/13 15:29:11;;;;;;;4.75;2.00;;;25.10;59.30;;;;;;6299025;27;80292;-70
2022/06/13 15:32:12;;;;;;;3.17;1.73;;;25.10;59.00;;;;;;6308016;27;86153;-69
2022/06/13 15:35:12;;;;;;;3.58;2.13;;;25.10;59.60;;;;;;6306665;27;80461;-69
2022/06/13 15:38:13;;;;;;;2.95;2.35;;;25.10;59.50;;;;;;6305717;27;81635;-68
2022/06/13 15:41:15;;;;;;;2.58;1.88;;;25.10;59.60;;;;;;6304972;27;81549;-68
2022/06/13 15:44:16;;;;;;;7.20;1.65;;;25.10;59.50;;;;;;6317809;27;80265;-69
2022/06/13 15:47:16;;;;;;;3.08;2.05;;;25.20;59.70;;;;;;6300073;27;80385;-67
2022/06/13 15:50:17;;;;;;;3.22;1.90;;;25.20;59.40;;;;;;6302204;27;80928;-67
2022/06/13 15:53:17;;;;;;;4.85;2.03;;;25.10;60.20;;;;;;6285070;27;83056;-66
2022/06/13 15:56:18;;;;;;;6.72;2.10;;;25.10;59.60;;;;;;6307671;27;80000;-67